sensor_id;sensor_type;location;lat;lon;timestamp;P1;durP1;ratioP1;P2;durP2;ratioP2
19087;SDS011;9676;50.916;13.352;2022-07-29T00:00:17;11.33;;;10.13;;
19087;SDS011;9676;50.916;13.352;2022-07-29T00:03:07;11.33;;;10.13;;
19087;SDS011;9676;50.916;13.352;2022-07-29T00:05:56;11.53;;;10.40;;
19087;SDS011;9676;50.916;13.352;2022-07-29T00:08:47;10.80;;;9.80;;
19087;SDS011;9676;50.916;13.352;2022-07-29T00:11:36;10.90;;;9.90;;
19087;SDS011;9676;50.916;13.352;2022-07-29T00:14:27;11.60;;;10.40;;
19087;SDS011;9676;50.916;13.352;2022-07-29T00:17:17;12.07;;;10.57;;
19087;SDS011;9676;50.916;13.352;2022-07-29T00:20:07;12.33;;;10.57;;
19087;SDS011;9676;50.916;13.352;2022-07-29T00:22:57;13.80;;;11.07;;
19087;SDS011;9676;50.916;13.352;2022-07-29T00:25:47;12.17;;;10.87;;
19087;SDS011;9676;50.916;13.352;2022-07-29T00:28:36;13.93;;;11.23;;
19087;SDS011;9676;50.916;13.352;2022-07-29T00:31:27;11.93;;;10.73;;
19087;SDS011;9676;50.916;13.352;2022-07-29T00:34:17;15.30;;;11.90;;
19087;SDS011;9676;50.916;13.352;2022-07-29T00:37:24;14.00;;;11.43;;
19087;SDS011;9676;50.916;13.352;2022-07-29T00:40:14;16.00;;;11.80;;
19087;SDS011;9676;50.916;13.352;2022-07-29T00:43:03;13.43;;;11.50;;
19087;SDS011;9676;50.916;13.352;2022-07-29T00:45:53;13.93;;;12.07;;
19087;SDS011;9676;50.916;13.352;2022-07-29T00:48:43;13.20;;;11.80;;
19087;SDS011;9676;50.916;13.352;2022-07-29T00:51:33;13.93;;;12.00;;
19087;SDS011;9676;50.916;13.352;2022-07-29T00:54:24;15.60;;;12.50;;
19087;SDS011;9676;50.916;13.352;2022-07-29T00:57:14;16.00;;;13.00;;
19087;SDS011;9676;50.916;13.352;2022-07-29T01:00:04;16.10;;;13.03;;
19087;SDS011;9676;50.916;13.352;2022-07-29T01:02:56;14.67;;;12.37;;
19087;SDS011;9676;50.916;13.352;2022-07-29T01:05:48;17.03;;;13.30;;
19087;SDS011;9676;50.916;13.352;2022-07-29T01:08:38;17.37;;;14.50;;
19087;SDS011;9676;50.916;13.352;2022-07-29T01:11:31;17.33;;;14.80;;
19087;SDS011;9676;50.916;13.352;2022-07-29T01:14:25;23.13;;;16.80;;
19087;SDS011;9676;50.916;13.352;2022-07-29T01:17:17;22.90;;;17.17;;
19087;SDS011;9676;50.916;13.352;2022-07-29T01:20:12;23.30;;;17.67;;
19087;SDS011;9676;50.916;13.352;2022-07-29T01:23:11;23.77;;;17.40;;
19087;SDS011;9676;50.916;13.352;2022-07-29T01:26:40;21.93;;;16.90;;
19087;SDS011;9676;50.916;13.352;2022-07-29T01:29:36;18.30;;;16.10;;
19087;SDS011;9676;50.916;13.352;2022-07-29T01:32:34;20.70;;;17.00;;
19087;SDS011;9676;50.916;13.352;2022-07-29T01:35:26;22.40;;;17.40;;
19087;SDS011;9676;50.916;13.352;2022-07-29T01:38:22;20.60;;;16.87;;
19087;SDS011;9676;50.916;13.352;2022-07-29T01:41:17;24.50;;;18.67;;
19087;SDS011;9676;50.916;13.352;2022-07-29T01:44:12;22.57;;;18.70;;
19087;SDS011;9676;50.916;13.352;2022-07-29T01:47:10;22.20;;;17.60;;
19087;SDS011;9676;50.916;13.352;2022-07-29T01:50:07;24.33;;;18.80;;
19087;SDS011;9676;50.916;13.352;2022-07-29T01:53:02;24.83;;;18.40;;
19087;SDS011;9676;50.916;13.352;2022-07-29T01:55:55;20.90;;;18.30;;
19087;SDS011;9676;50.916;13.352;2022-07-29T01:58:48;22.60;;;18.03;;
19087;SDS011;9676;50.916;13.352;2022-07-29T02:01:40;20.90;;;17.60;;
19087;SDS011;9676;50.916;13.352;2022-07-29T02:04:32;22.10;;;17.57;;
19087;SDS011;9676;50.916;13.352;2022-07-29T02:07:24;21.57;;;16.83;;
19087;SDS011;9676;50.916;13.352;2022-07-29T02:10:18;22.93;;;16.93;;
19087;SDS011;9676;50.916;13.352;2022-07-29T02:13:12;20.13;;;16.70;;
19087;SDS011;9676;50.916;13.352;2022-07-29T02:16:05;22.90;;;16.87;;
19087;SDS011;9676;50.916;13.352;2022-07-29T02:18:57;18.73;;;15.10;;
19087;SDS011;9676;50.916;13.352;2022-07-29T02:21:52;17.80;;;15.10;;
19087;SDS011;9676;50.916;13.352;2022-07-29T02:24:43;18.57;;;14.87;;
19087;SDS011;9676;50.916;13.352;2022-07-29T02:27:34;17.50;;;14.67;;
19087;SDS011;9676;50.916;13.352;2022-07-29T02:30:26;20.27;;;14.90;;
19087;SDS011;9676;50.916;13.352;2022-07-29T02:33:17;16.83;;;14.17;;
19087;SDS011;9676;50.916;13.352;2022-07-29T02:36:08;17.90;;;14.43;;
19087;SDS011;9676;50.916;13.352;2022-07-29T02:39:00;16.33;;;14.10;;
19087;SDS011;9676;50.916;13.352;2022-07-29T02:41:52;22.40;;;13.87;;
19087;SDS011;9676;50.916;13.352;2022-07-29T02:44:47;14.60;;;13.07;;
19087;SDS011;9676;50.916;13.352;2022-07-29T02:47:39;16.10;;;13.70;;
19087;SDS011;9676;50.916;13.352;2022-07-29T02:50:33;14.90;;;12.77;;
19087;SDS011;9676;50.916;13.352;2022-07-29T02:53:26;16.83;;;13.90;;
19087;SDS011;9676;50.916;13.352;2022-07-29T02:56:21;16.27;;;13.30;;
19087;SDS011;9676;50.916;13.352;2022-07-29T02:59:15;15.57;;;13.40;;
19087;SDS011;9676;50.916;13.352;2022-07-29T03:02:12;16.57;;;13.37;;
19087;SDS011;9676;50.916;13.352;2022-07-29T03:05:04;17.23;;;14.07;;
19087;SDS011;9676;50.916;13.352;2022-07-29T03:08:00;16.17;;;14.47;;
19087;SDS011;9676;50.916;13.352;2022-07-29T03:10:52;16.10;;;13.90;;
19087;SDS011;9676;50.916;13.352;2022-07-29T03:13:44;17.33;;;14.13;;
19087;SDS011;9676;50.916;13.352;2022-07-29T03:16:34;16.50;;;14.07;;
19087;SDS011;9676;50.916;13.352;2022-07-29T03:19:27;14.97;;;13.37;;
19087;SDS011;9676;50.916;13.352;2022-07-29T03:22:17;16.83;;;14.43;;
19087;SDS011;9676;50.916;13.352;2022-07-29T03:25:08;14.40;;;13.00;;
19087;SDS011;9676;50.916;13.352;2022-07-29T03:27:58;15.00;;;13.40;;
19087;SDS011;9676;50.916;13.352;2022-07-29T03:30:49;14.77;;;12.83;;
19087;SDS011;9676;50.916;13.352;2022-07-29T03:33:39;14.13;;;12.63;;
19087;SDS011;9676;50.916;13.352;2022-07-29T03:36:29;13.50;;;12.10;;
19087;SDS011;9676;50.916;13.352;2022-07-29T03:39:20;14.97;;;12.60;;
19087;SDS011;9676;50.916;13.352;2022-07-29T03:42:14;13.63;;;12.13;;
19087;SDS011;9676;50.916;13.352;2022-07-29T03:45:06;13.90;;;12.00;;
19087;SDS011;9676;50.916;13.352;2022-07-29T03:48:01;12.93;;;11.57;;
19087;SDS011;9676;50.916;13.352;2022-07-29T03:50:55;13.20;;;11.73;;
19087;SDS011;9676;50.916;13.352;2022-07-29T03:53:45;13.37;;;11.67;;
19087;SDS011;9676;50.916;13.352;2022-07-29T03:56:34;14.73;;;12.10;;
19087;SDS011;9676;50.916;13.352;2022-07-29T03:59:28;12.97;;;11.57;;
19087;SDS011;9676;50.916;13.352;2022-07-29T04:02:21;14.60;;;11.60;;
19087;SDS011;9676;50.916;13.352;2022-07-29T04:05:18;13.53;;;11.30;;
19087;SDS011;9676;50.916;13.352;2022-07-29T04:08:08;16.80;;;11.20;;
19087;SDS011;9676;50.916;13.352;2022-07-29T04:10:57;12.40;;;11.13;;
19087;SDS011;9676;50.916;13.352;2022-07-29T04:13:47;12.10;;;10.97;;
19087;SDS011;9676;50.916;13.352;2022-07-29T04:16:37;12.63;;;11.33;;
19087;SDS011;9676;50.916;13.352;2022-07-29T04:19:26;13.10;;;10.73;;
19087;SDS011;9676;50.916;13.352;2022-07-29T04:22:17;11.97;;;10.73;;
19087;SDS011;9676;50.916;13.352;2022-07-29T04:25:09;15.30;;;10.97;;
19087;SDS011;9676;50.916;13.352;2022-07-29T04:27:58;12.03;;;10.80;;
19087;SDS011;9676;50.916;13.352;2022-07-29T04:30:48;12.33;;;10.90;;
19087;SDS011;9676;50.916;13.352;2022-07-29T04:33:38;12.00;;;10.70;;
19087;SDS011;9676;50.916;13.352;2022-07-29T04:36:27;17.57;;;11.00;;
19087;SDS011;9676;50.916;13.352;2022-07-29T04:39:18;11.60;;;10.40;;
19087;SDS011;9676;50.916;13.352;2022-07-29T04:42:09;12.03;;;10.40;;
19087;SDS011;9676;50.916;13.352;2022-07-29T04:44:59;12.50;;;10.83;;
19087;SDS011;9676;50.916;13.352;2022-07-29T04:47:53;11.53;;;10.33;;
19087;SDS011;9676;50.916;13.352;2022-07-29T04:50:43;11.57;;;10.37;;
19087;SDS011;9676;50.916;13.352;2022-07-29T04:53:33;11.50;;;10.30;;
19087;SDS011;9676;50.916;13.352;2022-07-29T04:56:24;14.83;;;10.43;;
19087;SDS011;9676;50.916;13.352;2022-07-29T04:59:13;11.33;;;10.23;;
19087;SDS011;9676;50.916;13.352;2022-07-29T05:02:03;11.10;;;10.10;;
19087;SDS011;9676;50.916;13.352;2022-07-29T05:04:52;11.27;;;10.17;;
19087;SDS011;9676;50.916;13.352;2022-07-29T05:07:42;17.80;;;10.30;;
19087;SDS011;9676;50.916;13.352;2022-07-29T05:10:31;11.90;;;10.70;;
19087;SDS011;9676;50.916;13.352;2022-07-29T05:13:24;12.10;;;10.13;;
19087;SDS011;9676;50.916;13.352;2022-07-29T05:16:31;11.57;;;10.40;;
19087;SDS011;9676;50.916;13.352;2022-07-29T05:19:21;16.63;;;10.50;;
19087;SDS011;9676;50.916;13.352;2022-07-29T05:22:11;11.70;;;10.50;;
19087;SDS011;9676;50.916;13.352;2022-07-29T05:25:00;13.53;;;10.63;;
19087;SDS011;9676;50.916;13.352;2022-07-29T05:27:55;13.87;;;10.87;;
19087;SDS011;9676;50.916;13.352;2022-07-29T05:30:46;11.83;;;10.63;;
19087;SDS011;9676;50.916;13.352;2022-07-29T05:33:37;12.73;;;10.93;;
19087;SDS011;9676;50.916;13.352;2022-07-29T05:36:26;12.40;;;11.20;;
19087;SDS011;9676;50.916;13.352;2022-07-29T05:39:16;12.50;;;10.60;;
19087;SDS011;9676;50.916;13.352;2022-07-29T05:42:07;14.47;;;10.93;;
19087;SDS011;9676;50.916;13.352;2022-07-29T05:44:57;16.17;;;11.83;;
19087;SDS011;9676;50.916;13.352;2022-07-29T05:47:48;11.93;;;10.73;;
19087;SDS011;9676;50.916;13.352;2022-07-29T05:50:38;23.13;;;12.03;;
19087;SDS011;9676;50.916;13.352;2022-07-29T05:53:34;11.90;;;10.67;;
19087;SDS011;9676;50.916;13.352;2022-07-29T05:56:23;11.63;;;10.43;;
19087;SDS011;9676;50.916;13.352;2022-07-29T05:59:13;11.17;;;10.10;;
19087;SDS011;9676;50.916;13.352;2022-07-29T06:02:04;11.57;;;10.27;;
19087;SDS011;9676;50.916;13.352;2022-07-29T06:04:55;11.70;;;10.60;;
19087;SDS011;9676;50.916;13.352;2022-07-29T06:07:45;13.60;;;11.40;;
19087;SDS011;9676;50.916;13.352;2022-07-29T06:10:37;13.60;;;10.80;;
19087;SDS011;9676;50.916;13.352;2022-07-29T06:13:27;13.27;;;11.87;;
19087;SDS011;9676;50.916;13.352;2022-07-29T06:16:17;12.33;;;10.40;;
19087;SDS011;9676;50.916;13.352;2022-07-29T06:19:16;12.30;;;10.40;;
19087;SDS011;9676;50.916;13.352;2022-07-29T06:22:07;11.87;;;10.53;;
19087;SDS011;9676;50.916;13.352;2022-07-29T06:24:57;12.03;;;10.50;;
19087;SDS011;9676;50.916;13.352;2022-07-29T06:27:46;15.80;;;10.60;;
19087;SDS011;9676;50.916;13.352;2022-07-29T06:30:35;13.03;;;11.60;;
19087;SDS011;9676;50.916;13.352;2022-07-29T06:33:25;16.73;;;11.20;;
19087;SDS011;9676;50.916;13.352;2022-07-29T06:36:15;12.00;;;10.80;;
19087;SDS011;9676;50.916;13.352;2022-07-29T06:39:06;12.13;;;10.83;;
19087;SDS011;9676;50.916;13.352;2022-07-29T06:41:58;12.53;;;10.67;;
19087;SDS011;9676;50.916;13.352;2022-07-29T06:44:48;11.27;;;10.17;;
19087;SDS011;9676;50.916;13.352;2022-07-29T06:47:37;11.73;;;10.30;;
19087;SDS011;9676;50.916;13.352;2022-07-29T06:50:27;11.80;;;10.47;;
19087;SDS011;9676;50.916;13.352;2022-07-29T06:53:16;21.23;;;10.10;;
19087;SDS011;9676;50.916;13.352;2022-07-29T06:56:07;11.00;;;9.90;;
19087;SDS011;9676;50.916;13.352;2022-07-29T06:58:57;17.00;;;9.90;;
19087;SDS011;9676;50.916;13.352;2022-07-29T07:01:47;10.87;;;9.77;;
19087;SDS011;9676;50.916;13.352;2022-07-29T07:04:37;16.83;;;9.80;;
19087;SDS011;9676;50.916;13.352;2022-07-29T07:07:27;11.00;;;9.93;;
19087;SDS011;9676;50.916;13.352;2022-07-29T07:10:16;14.00;;;9.87;;
19087;SDS011;9676;50.916;13.352;2022-07-29T07:13:07;11.03;;;9.93;;
19087;SDS011;9676;50.916;13.352;2022-07-29T07:15:57;13.90;;;10.13;;
19087;SDS011;9676;50.916;13.352;2022-07-29T07:18:46;11.00;;;9.90;;
19087;SDS011;9676;50.916;13.352;2022-07-29T07:21:36;11.13;;;9.90;;
19087;SDS011;9676;50.916;13.352;2022-07-29T07:24:25;11.40;;;10.30;;
19087;SDS011;9676;50.916;13.352;2022-07-29T07:27:15;11.00;;;9.90;;
19087;SDS011;9676;50.916;13.352;2022-07-29T07:30:06;11.83;;;10.63;;
19087;SDS011;9676;50.916;13.352;2022-07-29T07:32:56;12.03;;;10.80;;
19087;SDS011;9676;50.916;13.352;2022-07-29T07:35:46;12.57;;;11.27;;
19087;SDS011;9676;50.916;13.352;2022-07-29T07:38:35;13.73;;;10.97;;
19087;SDS011;9676;50.916;13.352;2022-07-29T07:41:25;12.30;;;10.97;;
19087;SDS011;9676;50.916;13.352;2022-07-29T07:44:18;12.07;;;10.87;;
19087;SDS011;9676;50.916;13.352;2022-07-29T07:47:10;12.30;;;11.00;;
19087;SDS011;9676;50.916;13.352;2022-07-29T07:50:02;12.20;;;10.60;;
19087;SDS011;9676;50.916;13.352;2022-07-29T07:52:53;11.33;;;10.23;;
19087;SDS011;9676;50.916;13.352;2022-07-29T07:55:45;13.10;;;11.40;;
19087;SDS011;9676;50.916;13.352;2022-07-29T07:58:54;14.40;;;11.70;;
19087;SDS011;9676;50.916;13.352;2022-07-29T08:01:44;15.80;;;11.40;;
19087;SDS011;9676;50.916;13.352;2022-07-29T08:04:43;17.80;;;11.90;;
19087;SDS011;9676;50.916;13.352;2022-07-29T08:07:32;12.27;;;11.07;;
19087;SDS011;9676;50.916;13.352;2022-07-29T08:10:22;12.63;;;11.20;;
19087;SDS011;9676;50.916;13.352;2022-07-29T08:13:26;13.87;;;12.30;;
19087;SDS011;9676;50.916;13.352;2022-07-29T08:16:17;17.83;;;11.50;;
19087;SDS011;9676;50.916;13.352;2022-07-29T08:19:07;11.57;;;10.47;;
19087;SDS011;9676;50.916;13.352;2022-07-29T08:21:58;16.00;;;10.97;;
19087;SDS011;9676;50.916;13.352;2022-07-29T08:24:47;12.13;;;10.93;;
19087;SDS011;9676;50.916;13.352;2022-07-29T08:27:42;11.87;;;10.50;;
19087;SDS011;9676;50.916;13.352;2022-07-29T08:30:31;11.60;;;10.40;;
19087;SDS011;9676;50.916;13.352;2022-07-29T08:33:20;11.60;;;10.40;;
19087;SDS011;9676;50.916;13.352;2022-07-29T08:36:10;11.80;;;10.60;;
19087;SDS011;9676;50.916;13.352;2022-07-29T08:39:02;11.93;;;9.83;;
19087;SDS011;9676;50.916;13.352;2022-07-29T08:41:52;11.87;;;10.33;;
19087;SDS011;9676;50.916;13.352;2022-07-29T08:44:43;16.27;;;10.43;;
19087;SDS011;9676;50.916;13.352;2022-07-29T08:47:33;11.37;;;10.17;;
19087;SDS011;9676;50.916;13.352;2022-07-29T08:50:25;15.60;;;10.30;;
19087;SDS011;9676;50.916;13.352;2022-07-29T08:53:16;11.50;;;9.80;;
19087;SDS011;9676;50.916;13.352;2022-07-29T08:56:08;17.30;;;9.90;;
19087;SDS011;9676;50.916;13.352;2022-07-29T08:59:02;13.63;;;9.70;;
19087;SDS011;9676;50.916;13.352;2022-07-29T09:01:54;13.80;;;10.07;;
19087;SDS011;9676;50.916;13.352;2022-07-29T09:04:47;11.30;;;10.20;;
19087;SDS011;9676;50.916;13.352;2022-07-29T09:07:37;11.77;;;10.03;;
19087;SDS011;9676;50.916;13.352;2022-07-29T09:10:30;13.03;;;9.80;;
19087;SDS011;9676;50.916;13.352;2022-07-29T09:13:21;14.63;;;9.80;;
19087;SDS011;9676;50.916;13.352;2022-07-29T09:16:12;11.60;;;10.10;;
19087;SDS011;9676;50.916;13.352;2022-07-29T09:19:23;12.60;;;9.70;;
19087;SDS011;9676;50.916;13.352;2022-07-29T09:22:27;11.20;;;10.10;;
19087;SDS011;9676;50.916;13.352;2022-07-29T09:25:31;10.80;;;9.67;;
19087;SDS011;9676;50.916;13.352;2022-07-29T09:28:23;12.27;;;9.60;;
19087;SDS011;9676;50.916;13.352;2022-07-29T09:31:13;10.40;;;9.40;;
19087;SDS011;9676;50.916;13.352;2022-07-29T09:34:03;11.03;;;8.90;;
19087;SDS011;9676;50.916;13.352;2022-07-29T09:36:54;10.50;;;9.40;;
19087;SDS011;9676;50.916;13.352;2022-07-29T09:39:44;10.27;;;9.20;;
19087;SDS011;9676;50.916;13.352;2022-07-29T09:42:34;9.80;;;8.90;;
19087;SDS011;9676;50.916;13.352;2022-07-29T09:45:29;11.70;;;9.30;;
19087;SDS011;9676;50.916;13.352;2022-07-29T09:48:21;10.73;;;8.83;;
19087;SDS011;9676;50.916;13.352;2022-07-29T09:51:19;10.10;;;9.10;;
19087;SDS011;9676;50.916;13.352;2022-07-29T09:54:25;10.47;;;9.40;;
19087;SDS011;9676;50.916;13.352;2022-07-29T09:57:22;10.00;;;8.97;;
19087;SDS011;9676;50.916;13.352;2022-07-29T10:00:18;9.60;;;8.60;;
19087;SDS011;9676;50.916;13.352;2022-07-29T10:03:11;9.27;;;8.38;;
19087;SDS011;9676;50.916;13.352;2022-07-29T10:06:06;9.25;;;8.45;;
19087;SDS011;9676;50.916;13.352;2022-07-29T10:09:06;9.50;;;8.60;;
19087;SDS011;9676;50.916;13.352;2022-07-29T10:12:03;9.18;;;8.38;;
19087;SDS011;9676;50.916;13.352;2022-07-29T10:15:01;9.15;;;8.35;;
19087;SDS011;9676;50.916;13.352;2022-07-29T10:17:51;9.25;;;8.30;;
19087;SDS011;9676;50.916;13.352;2022-07-29T10:20:43;9.10;;;8.30;;
19087;SDS011;9676;50.916;13.352;2022-07-29T10:23:33;8.93;;;8.20;;
19087;SDS011;9676;50.916;13.352;2022-07-29T10:26:33;9.10;;;8.30;;
19087;SDS011;9676;50.916;13.352;2022-07-29T10:29:24;8.90;;;8.20;;
19087;SDS011;9676;50.916;13.352;2022-07-29T10:32:21;9.10;;;8.30;;
19087;SDS011;9676;50.916;13.352;2022-07-29T10:35:29;8.77;;;8.00;;
19087;SDS011;9676;50.916;13.352;2022-07-29T10:38:43;9.15;;;8.30;;
19087;SDS011;9676;50.916;13.352;2022-07-29T10:41:52;8.25;;;7.55;;
19087;SDS011;9676;50.916;13.352;2022-07-29T10:44:56;8.27;;;7.68;;
19087;SDS011;9676;50.916;13.352;2022-07-29T10:47:46;8.80;;;8.10;;
19087;SDS011;9676;50.916;13.352;2022-07-29T10:50:56;8.90;;;8.20;;
19087;SDS011;9676;50.916;13.352;2022-07-29T10:53:50;8.13;;;7.53;;
19087;SDS011;9676;50.916;13.352;2022-07-29T10:56:41;8.82;;;7.97;;
19087;SDS011;9676;50.916;13.352;2022-07-29T10:59:32;9.00;;;8.27;;
19087;SDS011;9676;50.916;13.352;2022-07-29T11:02:42;8.80;;;8.10;;
19087;SDS011;9676;50.916;13.352;2022-07-29T11:05:52;11.90;;;10.43;;
19087;SDS011;9676;50.916;13.352;2022-07-29T11:08:46;9.45;;;8.40;;
19087;SDS011;9676;50.916;13.352;2022-07-29T11:22:33;9.15;;;8.32;;
19087;SDS011;9676;50.916;13.352;2022-07-29T11:25:33;9.25;;;8.35;;
19087;SDS011;9676;50.916;13.352;2022-07-29T11:28:39;9.23;;;8.40;;
19087;SDS011;9676;50.916;13.352;2022-07-29T11:31:40;9.00;;;8.30;;
19087;SDS011;9676;50.916;13.352;2022-07-29T11:34:31;9.30;;;8.40;;
19087;SDS011;9676;50.916;13.352;2022-07-29T11:37:23;10.20;;;9.10;;
19087;SDS011;9676;50.916;13.352;2022-07-29T11:40:16;9.50;;;8.60;;
19087;SDS011;9676;50.916;13.352;2022-07-29T11:43:08;9.27;;;8.47;;
19087;SDS011;9676;50.916;13.352;2022-07-29T11:46:00;9.67;;;8.67;;
19087;SDS011;9676;50.916;13.352;2022-07-29T11:48:51;9.77;;;8.83;;
19087;SDS011;9676;50.916;13.352;2022-07-29T11:51:41;9.43;;;8.57;;
19087;SDS011;9676;50.916;13.352;2022-07-29T11:54:35;9.50;;;8.60;;
19087;SDS011;9676;50.916;13.352;2022-07-29T11:57:46;10.20;;;9.20;;
19087;SDS011;9676;50.916;13.352;2022-07-29T12:00:50;10.00;;;9.00;;
19087;SDS011;9676;50.916;13.352;2022-07-29T12:03:42;10.27;;;9.17;;
19087;SDS011;9676;50.916;13.352;2022-07-29T12:06:32;9.90;;;8.93;;
19087;SDS011;9676;50.916;13.352;2022-07-29T12:09:22;11.80;;;8.80;;
19087;SDS011;9676;50.916;13.352;2022-07-29T12:12:13;10.17;;;9.17;;
19087;SDS011;9676;50.916;13.352;2022-07-29T12:15:13;10.57;;;9.20;;
19087;SDS011;9676;50.916;13.352;2022-07-29T12:18:10;12.33;;;9.00;;
19087;SDS011;9676;50.916;13.352;2022-07-29T12:21:04;9.90;;;8.90;;
19087;SDS011;9676;50.916;13.352;2022-07-29T12:23:58;9.80;;;8.90;;
19087;SDS011;9676;50.916;13.352;2022-07-29T12:26:55;11.57;;;9.20;;
19087;SDS011;9676;50.916;13.352;2022-07-29T12:29:55;9.93;;;8.93;;
19087;SDS011;9676;50.916;13.352;2022-07-29T12:32:46;9.70;;;8.80;;
19087;SDS011;9676;50.916;13.352;2022-07-29T12:35:37;9.80;;;8.80;;
19087;SDS011;9676;50.916;13.352;2022-07-29T12:38:26;10.00;;;9.00;;
19087;SDS011;9676;50.916;13.352;2022-07-29T12:41:16;9.70;;;8.83;;
19087;SDS011;9676;50.916;13.352;2022-07-29T12:44:06;10.13;;;9.13;;
19087;SDS011;9676;50.916;13.352;2022-07-29T12:47:04;9.90;;;9.00;;
19087;SDS011;9676;50.916;13.352;2022-07-29T12:50:08;9.90;;;8.90;;
19087;SDS011;9676;50.916;13.352;2022-07-29T12:53:08;10.00;;;9.00;;
19087;SDS011;9676;50.916;13.352;2022-07-29T12:56:00;10.00;;;9.00;;
19087;SDS011;9676;50.916;13.352;2022-07-29T12:59:12;9.90;;;8.90;;
19087;SDS011;9676;50.916;13.352;2022-07-29T13:02:04;10.10;;;9.17;;
19087;SDS011;9676;50.916;13.352;2022-07-29T13:04:57;14.33;;;8.97;;
19087;SDS011;9676;50.916;13.352;2022-07-29T13:07:49;10.03;;;9.13;;
19087;SDS011;9676;50.916;13.352;2022-07-29T13:10:44;9.93;;;9.03;;
19087;SDS011;9676;50.916;13.352;2022-07-29T13:13:34;10.27;;;9.27;;
19087;SDS011;9676;50.916;13.352;2022-07-29T13:17:00;9.70;;;8.80;;
19087;SDS011;9676;50.916;13.352;2022-07-29T13:20:05;9.80;;;8.90;;
19087;SDS011;9676;50.916;13.352;2022-07-29T13:23:01;10.03;;;9.10;;
19087;SDS011;9676;50.916;13.352;2022-07-29T13:25:50;9.80;;;8.90;;
19087;SDS011;9676;50.916;13.352;2022-07-29T13:28:41;11.60;;;9.20;;
19087;SDS011;9676;50.916;13.352;2022-07-29T13:31:30;9.77;;;8.87;;
19087;SDS011;9676;50.916;13.352;2022-07-29T13:34:20;10.17;;;9.27;;
19087;SDS011;9676;50.916;13.352;2022-07-29T13:37:11;10.00;;;9.00;;
19087;SDS011;9676;50.916;13.352;2022-07-29T13:40:02;10.17;;;9.27;;
19087;SDS011;9676;50.916;13.352;2022-07-29T13:42:54;9.47;;;8.67;;
19087;SDS011;9676;50.916;13.352;2022-07-29T13:45:44;10.10;;;9.17;;
19087;SDS011;9676;50.916;13.352;2022-07-29T13:48:47;9.80;;;8.90;;
19087;SDS011;9676;50.916;13.352;2022-07-29T13:51:36;9.70;;;8.80;;
19087;SDS011;9676;50.916;13.352;2022-07-29T13:54:26;9.70;;;8.77;;
19087;SDS011;9676;50.916;13.352;2022-07-29T13:57:17;10.07;;;9.17;;
19087;SDS011;9676;50.916;13.352;2022-07-29T14:00:07;10.47;;;8.70;;
19087;SDS011;9676;50.916;13.352;2022-07-29T14:02:58;9.80;;;8.90;;
19087;SDS011;9676;50.916;13.352;2022-07-29T14:05:47;10.30;;;9.37;;
19087;SDS011;9676;50.916;13.352;2022-07-29T14:08:37;14.00;;;8.97;;
19087;SDS011;9676;50.916;13.352;2022-07-29T14:11:27;9.90;;;9.00;;
19087;SDS011;9676;50.916;13.352;2022-07-29T14:14:18;18.03;;;9.23;;
19087;SDS011;9676;50.916;13.352;2022-07-29T14:17:08;10.17;;;9.17;;
19087;SDS011;9676;50.916;13.352;2022-07-29T14:19:57;10.13;;;9.07;;
19087;SDS011;9676;50.916;13.352;2022-07-29T14:22:47;10.30;;;9.33;;
19087;SDS011;9676;50.916;13.352;2022-07-29T14:25:36;10.20;;;9.20;;
19087;SDS011;9676;50.916;13.352;2022-07-29T14:28:28;9.90;;;9.00;;
19087;SDS011;9676;50.916;13.352;2022-07-29T14:31:19;10.10;;;9.20;;
19087;SDS011;9676;50.916;13.352;2022-07-29T14:34:08;10.03;;;9.10;;
19087;SDS011;9676;50.916;13.352;2022-07-29T14:36:58;10.10;;;9.20;;
19087;SDS011;9676;50.916;13.352;2022-07-29T14:39:47;10.30;;;9.20;;
19087;SDS011;9676;50.916;13.352;2022-07-29T14:42:37;10.10;;;9.10;;
19087;SDS011;9676;50.916;13.352;2022-07-29T14:45:28;10.03;;;9.13;;
19087;SDS011;9676;50.916;13.352;2022-07-29T14:48:20;10.27;;;9.27;;
19087;SDS011;9676;50.916;13.352;2022-07-29T14:51:09;10.03;;;9.13;;
19087;SDS011;9676;50.916;13.352;2022-07-29T14:53:59;10.50;;;9.50;;
19087;SDS011;9676;50.916;13.352;2022-07-29T14:56:49;9.90;;;9.00;;
19087;SDS011;9676;50.916;13.352;2022-07-29T14:59:42;9.80;;;8.90;;
19087;SDS011;9676;50.916;13.352;2022-07-29T15:02:31;10.17;;;9.13;;
19087;SDS011;9676;50.916;13.352;2022-07-29T15:05:42;9.97;;;9.07;;
19087;SDS011;9676;50.916;13.352;2022-07-29T15:08:32;9.93;;;8.93;;
19087;SDS011;9676;50.916;13.352;2022-07-29T15:11:21;10.10;;;9.17;;
19087;SDS011;9676;50.916;13.352;2022-07-29T15:14:11;10.07;;;9.07;;
19087;SDS011;9676;50.916;13.352;2022-07-29T15:17:00;10.60;;;9.50;;
19087;SDS011;9676;50.916;13.352;2022-07-29T15:19:51;11.57;;;9.57;;
19087;SDS011;9676;50.916;13.352;2022-07-29T15:22:42;31.97;;;22.43;;
19087;SDS011;9676;50.916;13.352;2022-07-29T15:25:32;20.30;;;16.93;;
19087;SDS011;9676;50.916;13.352;2022-07-29T15:28:23;16.13;;;13.87;;
19087;SDS011;9676;50.916;13.352;2022-07-29T15:31:13;12.87;;;11.57;;
19087;SDS011;9676;50.916;13.352;2022-07-29T15:34:03;11.40;;;10.30;;
19087;SDS011;9676;50.916;13.352;2022-07-29T15:36:52;12.47;;;10.10;;
19087;SDS011;9676;50.916;13.352;2022-07-29T15:39:43;10.97;;;9.87;;
19087;SDS011;9676;50.916;13.352;2022-07-29T15:42:33;10.70;;;9.70;;
19087;SDS011;9676;50.916;13.352;2022-07-29T15:45:25;11.03;;;9.53;;
19087;SDS011;9676;50.916;13.352;2022-07-29T15:48:19;10.23;;;9.30;;
19087;SDS011;9676;50.916;13.352;2022-07-29T15:51:09;10.40;;;9.40;;
19087;SDS011;9676;50.916;13.352;2022-07-29T15:54:00;10.27;;;9.27;;
19087;SDS011;9676;50.916;13.352;2022-07-29T15:56:51;10.00;;;9.00;;
19087;SDS011;9676;50.916;13.352;2022-07-29T15:59:41;10.17;;;9.17;;
19087;SDS011;9676;50.916;13.352;2022-07-29T16:02:30;10.43;;;9.43;;
19087;SDS011;9676;50.916;13.352;2022-07-29T16:05:20;10.00;;;9.00;;
19087;SDS011;9676;50.916;13.352;2022-07-29T16:08:10;10.73;;;9.63;;
19087;SDS011;9676;50.916;13.352;2022-07-29T16:10:59;12.00;;;9.60;;
19087;SDS011;9676;50.916;13.352;2022-07-29T16:13:50;13.07;;;9.60;;
19087;SDS011;9676;50.916;13.352;2022-07-29T16:16:39;10.37;;;9.40;;
19087;SDS011;9676;50.916;13.352;2022-07-29T16:19:29;16.50;;;9.40;;
19087;SDS011;9676;50.916;13.352;2022-07-29T16:22:18;16.07;;;13.13;;
19087;SDS011;9676;50.916;13.352;2022-07-29T16:25:08;11.90;;;10.70;;
19087;SDS011;9676;50.916;13.352;2022-07-29T16:27:58;11.17;;;10.07;;
19087;SDS011;9676;50.916;13.352;2022-07-29T16:30:48;10.77;;;9.77;;
19087;SDS011;9676;50.916;13.352;2022-07-29T16:33:38;12.93;;;10.97;;
19087;SDS011;9676;50.916;13.352;2022-07-29T16:36:41;20.93;;;15.70;;
19087;SDS011;9676;50.916;13.352;2022-07-29T16:39:34;15.00;;;13.03;;
19087;SDS011;9676;50.916;13.352;2022-07-29T16:42:23;16.70;;;11.77;;
19087;SDS011;9676;50.916;13.352;2022-07-29T16:45:32;11.50;;;10.40;;
19087;SDS011;9676;50.916;13.352;2022-07-29T16:48:34;11.00;;;10.00;;
19087;SDS011;9676;50.916;13.352;2022-07-29T16:51:26;11.57;;;10.37;;
19087;SDS011;9676;50.916;13.352;2022-07-29T16:54:16;10.93;;;9.83;;
19087;SDS011;9676;50.916;13.352;2022-07-29T16:57:06;10.70;;;9.70;;
19087;SDS011;9676;50.916;13.352;2022-07-29T16:59:55;10.63;;;9.60;;
19087;SDS011;9676;50.916;13.352;2022-07-29T17:02:45;10.60;;;9.50;;
19087;SDS011;9676;50.916;13.352;2022-07-29T17:05:36;10.10;;;9.20;;
19087;SDS011;9676;50.916;13.352;2022-07-29T17:08:40;10.50;;;9.40;;